Marian S Heiskell — WDD7538 — position and weather

sailwx.info

Track history (hours):
 
Tides and Currents Weather Stations Pressure Air Temp Water Temp Dewpoint Dewpoint Depression Visibility Wind Speed Wind Dir Waves Ship Positions

Marian S Heiskell

Owner: NYCL Acquisition LLC, Brooklyn, NY. More information available from US FCC via Universal Licensing System and Coast Guard Vessel Documentation Center.

Last reported at 2018-Feb-18 23:01 UTC. Time now 2018-Feb-19 02:10 UTC.
Position N 40°40' W 074°01'.

Length 20 m.

Type: Passenger vessel. MMSI: 367187770.

Date/timePositionNaut miles runAvg speedWind from/ knotsBaromVisibWave heightAir tempDewpointWater temp
2018-Feb-18 23:01N 40°40' W 074°01'120.2
2018-Feb-18 22:59N 40°41' W 074°01'1 2.7
2018-Feb-18 22:30N 40°42' W 074°01'1 1.1
2018-Feb-18 22:00N 40°43' W 074°02'1 2.2
2018-Feb-18 21:28N 40°42' W 074°01'4 8.5
2018-Feb-18 21:00N 40°46' W 074°00'4 7.3
2018-Feb-18 20:30N 40°42' W 073°60'1 2.4
2018-Feb-18 20:00N 40°42' W 074°01'1 1.2
2018-Feb-18 19:30N 40°42' W 074°02'1 1.2
2018-Feb-18 19:00N 40°42' W 074°01'1 2.6
2018-Feb-18 18:25N 40°44' W 074°01'2 4.1
2018-Feb-18 18:00N 40°42' W 073°60'3 5.7
2018-Feb-18 17:30N 40°45' W 074°01'4 8.0
2018-Feb-18 17:00N 40°41' W 074°03'1 2.9
2018-Feb-18 16:30N 40°42' W 074°01'1 2.3
2018-Feb-18 16:00N 40°43' W 074°01'1 2.2
2018-Feb-18 15:23N 40°42' W 074°01'4 9.5
2018-Feb-18 15:00N 40°46' W 074°00'5 0.4
2018-Feb-18 01:06N 40°40' W 074°01'0 0.9
2018-Feb-18 00:39N 40°41' W 074°01'0 0.3
2018-Feb-17 23:48N 40°40' W 074°01'0 0.2
2018-Feb-17 23:24N 40°40' W 074°01'1 1.5
2018-Feb-17 23:00N 40°41' W 074°01'0 0.1
2018-Feb-17 22:29N 40°41' W 074°01'1 1.4
2018-Feb-17 21:59N 40°40' W 074°01'1 2.1
2018-Feb-17 21:24N 40°41' W 074°01'1 3.1
2018-Feb-17 21:00N 40°40' W 074°01'0 0.6
2018-Feb-17 20:28N 40°40' W 074°01'1 1.9
2018-Feb-17 20:00N 40°41' W 074°01'1 1.9
2018-Feb-17 19:30N 40°40' W 074°01'2 4.1
2018-Feb-17 19:00N 40°42' W 074°00'2 3.9
2018-Feb-17 18:29N 40°40' W 074°01'1 1.0
2018-Feb-17 17:58N 40°41' W 074°01'1 1.4
2018-Feb-17 17:30N 40°41' W 074°01'1 1.5
2018-Feb-17 16:59N 40°40' W 074°01'1 2.1
2018-Feb-17 16:23N 40°42' W 074°01'1 0.1
2018-Feb-17 01:05N 40°41' W 074°01'2 7.7
2018-Feb-17 00:53N 40°42' W 074°00'2 4.5
2018-Feb-17 00:29N 40°40' W 074°01'0 0.3
2018-Feb-17 00:00N 40°40' W 074°01'2 3.1
2018-Feb-16 23:26N 40°42' W 074°00'2 4.3
2018-Feb-16 23:00N 40°40' W 074°01'0 0.4
2018-Feb-16 22:12N 40°41' W 074°01'0 0.0
2018-Feb-16 19:58N 40°40' W 074°01'0 0.4
2018-Feb-16 19:30N 40°40' W 074°01'1 1.3
2018-Feb-16 18:51N 40°41' W 074°01'1 0.1
2018-Feb-16 01:31N 40°40' W 074°01'011.8
2018-Feb-16 01:29N 40°40' W 074°01'3 5.4
2018-Feb-16 00:51N 40°43' W 073°58'412.9
2018-Feb-16 00:30N 40°39' W 074°02'5 8.6
2018-Feb-15 23:53N 40°44' W 073°58'614.4
2018-Feb-15 23:30N 40°39' W 074°02'5 7.9
2018-Feb-15 22:50N 40°43' W 073°58'516.0
2018-Feb-15 22:30N 40°39' W 074°02'5 6.8
2018-Feb-15 21:49N 40°43' W 073°58'515.5
2018-Feb-15 21:30N 40°39' W 074°02'6 9.1
2018-Feb-15 20:52N 40°44' W 073°58'613.5
2018-Feb-15 20:27N 40°39' W 074°02'5 7.6
2018-Feb-15 19:50N 40°43' W 073°58'411.4
2018-Feb-15 19:26N 40°39' W 074°02'4 7.4
2018-Feb-15 18:51N 40°43' W 073°58'410.5
2018-Feb-15 18:27N 40°39' W 074°02'0 0.4
2018-Feb-15 17:32N 40°40' W 074°02'319.1
2018-Feb-15 17:22N 40°37' W 074°03'  
2018-Feb-09 22:56N 40°40' W 074°01'211.7
2018-Feb-09 22:45N 40°42' W 074°00'1 0.4
2018-Feb-09 19:31N 40°42' W 074°02'1 0.2
2018-Feb-09 16:30N 40°43' W 074°01'0 0.8
2018-Feb-09 16:01N 40°43' W 074°02'  
Track history (hours):
 
Tides and Currents Weather Stations Pressure Air Temp Water Temp Dewpoint Dewpoint Depression Visibility Wind Speed Wind Dir Waves Ship Positions

Marian S Heiskell

Owner: NYCL Acquisition LLC, Brooklyn, NY. More information available from US FCC via Universal Licensing System and Coast Guard Vessel Documentation Center.

Last reported at 2018-Feb-18 23:01 UTC. Time now 2018-Feb-19 02:10 UTC.
Position N 40°40' W 074°01'.

Length 20 m.

Type: Passenger vessel. MMSI: 367187770.

Date/timePositionNaut miles runAvg speedWind from/ knotsBaromVisibWave heightAir tempDewpointWater temp
2018-Feb-18 23:01N 40°40' W 074°01'120.2
2018-Feb-18 22:59N 40°41' W 074°01'1 2.7
2018-Feb-18 22:30N 40°42' W 074°01'1 1.1
2018-Feb-18 22:00N 40°43' W 074°02'1 2.2
2018-Feb-18 21:28N 40°42' W 074°01'4 8.5
2018-Feb-18 21:00N 40°46' W 074°00'4 7.3
2018-Feb-18 20:30N 40°42' W 073°60'1 2.4
2018-Feb-18 20:00N 40°42' W 074°01'1 1.2
2018-Feb-18 19:30N 40°42' W 074°02'1 1.2
2018-Feb-18 19:00N 40°42' W 074°01'1 2.6
2018-Feb-18 18:25N 40°44' W 074°01'2 4.1
2018-Feb-18 18:00N 40°42' W 073°60'3 5.7
2018-Feb-18 17:30N 40°45' W 074°01'4 8.0
2018-Feb-18 17:00N 40°41' W 074°03'1 2.9
2018-Feb-18 16:30N 40°42' W 074°01'1 2.3
2018-Feb-18 16:00N 40°43' W 074°01'1 2.2
2018-Feb-18 15:23N 40°42' W 074°01'4 9.5
2018-Feb-18 15:00N 40°46' W 074°00'5 0.4
2018-Feb-18 01:06N 40°40' W 074°01'0 0.9
2018-Feb-18 00:39N 40°41' W 074°01'0 0.3
2018-Feb-17 23:48N 40°40' W 074°01'0 0.2
2018-Feb-17 23:24N 40°40' W 074°01'1 1.5
2018-Feb-17 23:00N 40°41' W 074°01'0 0.1
2018-Feb-17 22:29N 40°41' W 074°01'1 1.4
2018-Feb-17 21:59N 40°40' W 074°01'1 2.1
2018-Feb-17 21:24N 40°41' W 074°01'1 3.1
2018-Feb-17 21:00N 40°40' W 074°01'0 0.6
2018-Feb-17 20:28N 40°40' W 074°01'1 1.9
2018-Feb-17 20:00N 40°41' W 074°01'1 1.9
2018-Feb-17 19:30N 40°40' W 074°01'2 4.1
2018-Feb-17 19:00N 40°42' W 074°00'2 3.9
2018-Feb-17 18:29N 40°40' W 074°01'1 1.0
2018-Feb-17 17:58N 40°41' W 074°01'1 1.4
2018-Feb-17 17:30N 40°41' W 074°01'1 1.5
2018-Feb-17 16:59N 40°40' W 074°01'1 2.1
2018-Feb-17 16:23N 40°42' W 074°01'1 0.1
2018-Feb-17 01:05N 40°41' W 074°01'2 7.7
2018-Feb-17 00:53N 40°42' W 074°00'2 4.5
2018-Feb-17 00:29N 40°40' W 074°01'0 0.3
2018-Feb-17 00:00N 40°40' W 074°01'2 3.1
2018-Feb-16 23:26N 40°42' W 074°00'2 4.3
2018-Feb-16 23:00N 40°40' W 074°01'0 0.4
2018-Feb-16 22:12N 40°41' W 074°01'0 0.0
2018-Feb-16 19:58N 40°40' W 074°01'0 0.4
2018-Feb-16 19:30N 40°40' W 074°01'1 1.3
2018-Feb-16 18:51N 40°41' W 074°01'1 0.1
2018-Feb-16 01:31N 40°40' W 074°01'011.8
2018-Feb-16 01:29N 40°40' W 074°01'3 5.4
2018-Feb-16 00:51N 40°43' W 073°58'412.9
2018-Feb-16 00:30N 40°39' W 074°02'5 8.6
2018-Feb-15 23:53N 40°44' W 073°58'614.4
2018-Feb-15 23:30N 40°39' W 074°02'5 7.9
2018-Feb-15 22:50N 40°43' W 073°58'516.0
2018-Feb-15 22:30N 40°39' W 074°02'5 6.8
2018-Feb-15 21:49N 40°43' W 073°58'515.5
2018-Feb-15 21:30N 40°39' W 074°02'6 9.1
2018-Feb-15 20:52N 40°44' W 073°58'613.5
2018-Feb-15 20:27N 40°39' W 074°02'5 7.6
2018-Feb-15 19:50N 40°43' W 073°58'411.4
2018-Feb-15 19:26N 40°39' W 074°02'4 7.4
2018-Feb-15 18:51N 40°43' W 073°58'410.5
2018-Feb-15 18:27N 40°39' W 074°02'0 0.4
2018-Feb-15 17:32N 40°40' W 074°02'319.1
2018-Feb-15 17:22N 40°37' W 074°03'  
2018-Feb-09 22:56N 40°40' W 074°01'211.7
2018-Feb-09 22:45N 40°42' W 074°00'1 0.4
2018-Feb-09 19:31N 40°42' W 074°02'1 0.2
2018-Feb-09 16:30N 40°43' W 074°01'0 0.8
2018-Feb-09 16:01N 40°43' W 074°02'  

Dump ship's entire track history